createdAt,value
2022-11-16T00:00:11.440Z,26.73
2022-11-16T00:03:03.125Z,26.73
2022-11-16T00:05:33.993Z,28.48
2022-11-16T00:08:03.406Z,26.95
2022-11-16T00:10:32.873Z,27.00
2022-11-16T00:13:02.039Z,26.00
2022-11-16T00:15:31.327Z,25.77
2022-11-16T00:18:00.296Z,26.60
2022-11-16T00:20:29.611Z,27.77
2022-11-16T00:23:00.033Z,27.90
2022-11-16T00:25:29.582Z,27.35
2022-11-16T00:27:58.615Z,30.00
2022-11-16T00:30:28.358Z,29.48
2022-11-16T00:33:01.248Z,24.90
2022-11-16T00:35:30.603Z,27.35
2022-11-16T00:38:01.028Z,27.13
2022-11-16T00:40:30.300Z,24.83
2022-11-16T00:42:59.279Z,25.92
2022-11-16T00:45:28.693Z,24.85
2022-11-16T00:48:00.409Z,27.95
2022-11-16T00:50:30.990Z,25.75
2022-11-16T00:53:01.579Z,25.80
2022-11-16T00:55:31.836Z,26.55
2022-11-16T00:58:01.357Z,26.55
2022-11-16T01:00:31.571Z,26.08
2022-11-16T01:03:00.674Z,24.35
2022-11-16T01:05:30.171Z,26.33
2022-11-16T01:08:01.182Z,25.65
2022-11-16T01:10:31.100Z,23.60
2022-11-16T01:12:59.281Z,25.40
2022-11-16T01:15:29.729Z,22.20
2022-11-16T01:17:59.366Z,24.27
2022-11-16T01:20:30.619Z,22.40
2022-11-16T01:23:01.114Z,23.80
2022-11-16T01:25:30.563Z,24.80
2022-11-16T01:27:59.572Z,24.35
2022-11-16T01:30:41.150Z,22.08
2022-11-16T01:33:11.991Z,21.83
2022-11-16T01:35:45.226Z,23.02
2022-11-16T01:38:19.249Z,22.23
2022-11-16T01:40:48.754Z,21.10
2022-11-16T01:43:19.578Z,22.48
2022-11-16T01:45:50.117Z,22.23
2022-11-16T01:48:23.325Z,19.75
2022-11-16T01:50:55.543Z,20.83
2022-11-16T01:53:26.818Z,20.50
2022-11-16T01:55:58.957Z,22.05
2022-11-16T01:58:48.663Z,18.80
2022-11-16T02:01:27.749Z,20.17
2022-11-16T02:04:00.434Z,20.25
2022-11-16T02:09:55.695Z,16.77
2022-11-16T02:12:47.730Z,16.93
2022-11-16T02:15:27.390Z,19.48
2022-11-16T02:18:32.322Z,15.68
2022-11-16T02:21:18.186Z,14.90
2022-11-16T02:24:17.055Z,11.63
2022-11-16T02:27:11.676Z,9.00
2022-11-16T02:29:46.080Z,7.20
2022-11-16T02:32:20.002Z,8.27
2022-11-16T02:34:53.857Z,6.20
2022-11-16T02:37:26.006Z,6.93
2022-11-16T02:39:59.842Z,5.88
2022-11-16T02:42:34.088Z,5.28
2022-11-16T02:45:10.028Z,6.47
2022-11-16T02:47:41.853Z,6.75
2022-11-16T02:50:16.176Z,4.47
2022-11-16T02:52:45.281Z,4.25
2022-11-16T02:55:14.861Z,4.65
2022-11-16T02:57:52.777Z,3.13
2022-11-16T03:00:26.092Z,2.78
2022-11-16T03:03:17.352Z,2.33
2022-11-16T03:05:50.618Z,2.15
2022-11-16T03:08:25.211Z,2.28
2022-11-16T03:11:17.508Z,2.00
2022-11-16T03:13:48.240Z,1.95
2022-11-16T03:16:23.608Z,2.25
2022-11-16T03:18:56.462Z,2.33
2022-11-16T03:21:34.954Z,2.20
2022-11-16T03:24:04.855Z,1.60
2022-11-16T03:26:39.599Z,1.77
2022-11-16T03:29:15.543Z,1.70
2022-11-16T03:31:51.819Z,1.48
2022-11-16T03:34:26.768Z,1.33
2022-11-16T03:36:57.820Z,1.20
2022-11-16T03:39:31.417Z,1.42
2022-11-16T03:42:03.824Z,1.60
2022-11-16T03:44:32.977Z,1.55
2022-11-16T03:47:04.137Z,1.63
2022-11-16T03:49:33.195Z,1.50
2022-11-16T03:52:02.607Z,1.33
2022-11-16T03:54:33.518Z,1.80
2022-11-16T03:57:03.568Z,1.45
2022-11-16T03:59:32.886Z,1.35
2022-11-16T04:02:03.776Z,1.25
2022-11-16T04:04:50.948Z,1.50
2022-11-16T04:07:37.696Z,1.10
2022-11-16T04:10:25.313Z,1.45
2022-11-16T04:13:12.211Z,1.13
2022-11-16T04:15:59.086Z,1.70
2022-11-16T04:18:46.966Z,1.20
2022-11-16T04:21:39.243Z,1.15
2022-11-16T04:24:15.132Z,1.00
2022-11-16T04:27:05.269Z,1.33
2022-11-16T04:29:35.700Z,1.90
2022-11-16T04:32:23.236Z,1.35
2022-11-16T04:35:11.640Z,1.67
2022-11-16T04:37:49.691Z,1.27
2022-11-16T04:40:26.396Z,1.75
2022-11-16T04:42:56.418Z,2.00
2022-11-16T04:45:44.270Z,1.45
2022-11-16T04:48:15.553Z,1.85
2022-11-16T04:50:46.468Z,2.22
2022-11-16T04:53:16.497Z,2.35
2022-11-16T04:55:51.221Z,2.10
2022-11-16T04:58:22.669Z,2.22
2022-11-16T05:00:52.395Z,2.00
2022-11-16T05:03:23.423Z,2.05
2022-11-16T05:08:23.331Z,2.33
2022-11-16T05:10:54.740Z,1.98
2022-11-16T05:13:23.928Z,2.58
2022-11-16T05:15:55.004Z,2.15
2022-11-16T05:18:24.946Z,1.80
2022-11-16T05:21:01.231Z,1.50
2022-11-16T05:23:52.547Z,2.05
2022-11-16T05:26:24.628Z,1.67
2022-11-16T05:28:55.553Z,1.83
2022-11-16T05:31:25.068Z,1.58
2022-11-16T05:33:54.636Z,1.88
2022-11-16T05:36:26.146Z,1.60
2022-11-16T05:38:56.410Z,1.50
2022-11-16T05:41:29.976Z,1.42
2022-11-16T05:44:00.524Z,1.63
2022-11-16T05:46:29.970Z,1.67
2022-11-16T05:49:01.795Z,1.52
2022-11-16T05:51:32.684Z,1.27
2022-11-16T05:54:01.853Z,2.25
2022-11-16T05:56:31.642Z,1.85
2022-11-16T05:59:00.857Z,1.83
2022-11-16T06:01:30.657Z,2.10
2022-11-16T06:04:01.662Z,2.25
2022-11-16T06:06:33.838Z,2.22
2022-11-16T06:09:03.102Z,2.50
2022-11-16T06:11:36.241Z,2.15
2022-11-16T06:14:07.015Z,2.58
2022-11-16T06:16:37.886Z,1.90
2022-11-16T06:19:09.943Z,2.20
2022-11-16T06:21:40.805Z,2.80
2022-11-16T06:24:15.664Z,2.50
2022-11-16T06:26:47.435Z,1.85
2022-11-16T06:29:16.523Z,2.20
2022-11-16T06:31:45.734Z,2.30
2022-11-16T06:34:15.359Z,2.15
2022-11-16T06:36:46.421Z,1.63
2022-11-16T06:39:16.231Z,1.73
2022-11-16T06:41:45.596Z,1.73
2022-11-16T06:44:15.748Z,1.75
2022-11-16T06:46:54.798Z,1.90
2022-11-16T06:49:25.237Z,1.70
2022-11-16T06:51:58.565Z,1.70
2022-11-16T06:54:28.364Z,1.77
2022-11-16T06:56:57.693Z,1.80
2022-11-16T06:59:26.635Z,1.92
2022-11-16T07:01:55.977Z,1.80
2022-11-16T07:04:25.288Z,2.15
2022-11-16T07:06:59.804Z,2.40
2022-11-16T07:09:29.350Z,2.35
2022-11-16T07:11:58.989Z,2.13
2022-11-16T07:14:29.824Z,1.90
2022-11-16T07:17:01.077Z,2.03
2022-11-16T07:19:32.241Z,2.38
2022-11-16T07:24:32.985Z,2.30
2022-11-16T07:27:02.347Z,2.63
2022-11-16T07:29:36.841Z,2.63
2022-11-16T07:32:25.335Z,2.67
2022-11-16T07:35:14.360Z,1.83
2022-11-16T07:37:46.002Z,1.90
2022-11-16T07:40:17.339Z,1.73
2022-11-16T07:42:48.375Z,1.95
2022-11-16T07:45:33.102Z,2.30
2022-11-16T07:48:08.619Z,2.58
2022-11-16T07:50:55.986Z,1.85
2022-11-16T07:53:27.205Z,2.47
2022-11-16T07:55:56.416Z,2.05
2022-11-16T07:58:28.762Z,2.70
2022-11-16T08:01:05.883Z,1.63
2022-11-16T08:03:37.126Z,2.50
2022-11-16T08:06:12.380Z,2.30
2022-11-16T08:08:43.373Z,2.45
2022-11-16T08:11:13.944Z,2.05
2022-11-16T08:13:45.685Z,2.38
2022-11-16T08:16:17.948Z,2.38
2022-11-16T08:18:48.865Z,2.47
2022-11-16T08:21:19.892Z,2.30
2022-11-16T08:23:55.348Z,2.17
2022-11-16T08:26:28.322Z,1.83
2022-11-16T08:29:03.947Z,2.00
2022-11-16T08:31:36.891Z,1.63
2022-11-16T08:34:25.018Z,1.52
2022-11-16T08:39:04.891Z,1.65
